createdAt,value
2022-10-18T00:01:14.286Z,101984.00
2022-10-18T00:06:16.692Z,101984.09
2022-10-18T00:08:45.294Z,101984.00
2022-10-18T00:11:13.839Z,102004.34
2022-10-18T00:13:42.505Z,101997.44
2022-10-18T00:16:14.505Z,101989.53
2022-10-18T00:18:44.579Z,101995.78
2022-10-18T00:21:16.642Z,101993.19
2022-10-18T00:23:46.406Z,101989.66
2022-10-18T00:26:16.888Z,102004.63
2022-10-18T00:28:46.010Z,102009.13
2022-10-18T00:31:18.134Z,102012.69
2022-10-18T00:33:49.052Z,102009.34
2022-10-18T00:36:17.798Z,102003.06
2022-10-18T00:38:46.936Z,102015.69
2022-10-18T00:41:18.265Z,102020.34
2022-10-18T00:43:58.959Z,102023.03
2022-10-18T00:46:31.150Z,102017.00
2022-10-18T00:49:02.515Z,102013.53
2022-10-18T00:51:36.447Z,102013.56
2022-10-18T00:54:05.426Z,101999.44
2022-10-18T00:56:35.417Z,102013.78
2022-10-18T00:59:04.560Z,101994.41
2022-10-18T01:01:34.585Z,102016.91
2022-10-18T01:04:03.837Z,102014.34
2022-10-18T01:06:33.416Z,102009.16
2022-10-18T01:09:11.788Z,102012.91
2022-10-18T01:12:10.853Z,102016.56
2022-10-18T01:14:47.309Z,102006.16
2022-10-18T01:17:21.705Z,102009.03
2022-10-18T01:20:18.793Z,102029.22
2022-10-18T01:22:52.804Z,102024.91
2022-10-18T01:25:35.478Z,102014.50
2022-10-18T01:28:14.430Z,102020.69
2022-10-18T01:30:48.927Z,102008.63
2022-10-18T01:33:39.179Z,102001.53
2022-10-18T01:36:15.471Z,102001.66
2022-10-18T01:38:45.981Z,102005.03
2022-10-18T01:41:16.126Z,101999.78
2022-10-18T01:43:47.678Z,101996.22
2022-10-18T01:46:22.205Z,101996.19
2022-10-18T01:48:51.731Z,101996.22
2022-10-18T01:51:21.059Z,102011.31
2022-10-18T01:53:49.769Z,102014.00
2022-10-18T01:56:24.811Z,102003.38
2022-10-18T01:59:13.846Z,102015.59
2022-10-18T02:01:52.224Z,102006.72
2022-10-18T02:04:29.792Z,102005.78
2022-10-18T02:07:04.170Z,101986.25
2022-10-18T02:09:39.672Z,101997.75
2022-10-18T02:12:13.335Z,102003.00
2022-10-18T02:14:44.961Z,102001.16
2022-10-18T02:17:17.532Z,101994.06
2022-10-18T02:19:51.313Z,102006.50
2022-10-18T02:22:21.462Z,102003.13
2022-10-18T02:24:54.253Z,102003.88
2022-10-18T02:27:23.677Z,102009.22
2022-10-18T02:29:53.626Z,102015.41
2022-10-18T02:32:31.776Z,102003.94
2022-10-18T02:35:05.863Z,101995.19
2022-10-18T02:37:38.139Z,102006.41
2022-10-18T02:40:09.606Z,102013.44
2022-10-18T02:42:40.505Z,102022.38
2022-10-18T02:45:09.405Z,102027.66
2022-10-18T02:47:39.309Z,102022.31
2022-10-18T02:50:08.293Z,102033.78
2022-10-18T02:52:37.318Z,102028.38
2022-10-18T02:55:07.322Z,102028.38
2022-10-18T02:57:36.242Z,102036.00
2022-10-18T03:00:06.361Z,102030.81
2022-10-18T03:02:35.185Z,102028.91
2022-10-18T03:05:05.615Z,102032.41
2022-10-18T03:07:34.310Z,102037.84
2022-10-18T03:10:03.129Z,102042.03
2022-10-18T03:12:31.648Z,102029.69
2022-10-18T03:15:00.202Z,102036.00
2022-10-18T03:17:28.886Z,102049.84
2022-10-18T03:19:57.581Z,102057.66
2022-10-18T03:24:58.220Z,102070.94
2022-10-18T03:27:26.693Z,102072.63
2022-10-18T03:29:55.188Z,102060.16
2022-10-18T03:32:23.885Z,102049.47
2022-10-18T03:34:52.389Z,102054.59
2022-10-18T03:37:20.900Z,102041.31
2022-10-18T03:39:50.860Z,102037.75
2022-10-18T03:42:19.359Z,102038.53
2022-10-18T03:44:47.915Z,102046.38
2022-10-18T03:47:16.748Z,102036.56
2022-10-18T03:49:45.300Z,102041.91
2022-10-18T03:52:13.924Z,102038.22
2022-10-18T03:54:42.415Z,102057.50
2022-10-18T03:57:12.312Z,102053.16
2022-10-18T03:59:40.858Z,102052.03
2022-10-18T04:02:09.401Z,102057.28
2022-10-18T04:04:38.304Z,102061.53
2022-10-18T04:07:06.994Z,102053.63
2022-10-18T04:09:35.929Z,102049.19
2022-10-18T04:12:04.636Z,102050.75
2022-10-18T04:14:34.561Z,102053.28
2022-10-18T04:17:04.943Z,102055.88
2022-10-18T04:19:33.468Z,102046.09
2022-10-18T04:22:02.038Z,102055.78
2022-10-18T04:24:30.668Z,102062.81
2022-10-18T04:26:59.154Z,102048.63
2022-10-18T04:29:27.710Z,102044.34
2022-10-18T04:31:57.732Z,102040.69
2022-10-18T04:34:26.306Z,102054.56
2022-10-18T04:36:54.879Z,102063.25
2022-10-18T04:39:23.446Z,102052.63
2022-10-18T04:41:51.957Z,102053.47
2022-10-18T04:44:20.561Z,102059.53
2022-10-18T04:46:49.124Z,102056.00
2022-10-18T04:49:19.123Z,102067.44
2022-10-18T04:51:47.714Z,102061.25
2022-10-18T04:54:16.285Z,102054.22
2022-10-18T04:56:44.805Z,102045.34
2022-10-18T04:59:13.457Z,102042.53
2022-10-18T05:01:42.066Z,102040.72
2022-10-18T05:04:10.959Z,102056.47
2022-10-18T05:06:43.597Z,102050.34
2022-10-18T05:09:12.109Z,102045.09
2022-10-18T05:11:40.726Z,102046.72
2022-10-18T05:14:10.206Z,102043.25
2022-10-18T05:16:38.741Z,102049.38
2022-10-18T05:19:07.378Z,102051.97
2022-10-18T05:21:36.163Z,102045.81
2022-10-18T05:24:06.768Z,102048.44
2022-10-18T05:26:35.306Z,102047.53
2022-10-18T05:29:04.615Z,102038.75
2022-10-18T05:31:33.324Z,102037.84
2022-10-18T05:34:01.984Z,102047.47
2022-10-18T05:36:30.513Z,102041.31
2022-10-18T05:39:02.428Z,102045.72
2022-10-18T05:41:35.140Z,102045.66
2022-10-18T05:44:05.112Z,102043.09
2022-10-18T05:46:34.481Z,102043.00
2022-10-18T05:49:02.994Z,102041.16
2022-10-18T05:51:31.607Z,102043.69
2022-10-18T05:54:00.723Z,102044.59
2022-10-18T05:56:29.359Z,102042.78
2022-10-18T05:58:59.708Z,102048.91
2022-10-18T06:01:28.308Z,102055.84
2022-10-18T06:03:56.851Z,102049.63
2022-10-18T06:06:25.362Z,102050.47
2022-10-18T06:08:54.063Z,102054.78
2022-10-18T06:11:22.639Z,102053.03
2022-10-18T06:13:52.328Z,102057.34
2022-10-18T06:16:26.197Z,102039.00
2022-10-18T06:18:59.910Z,102025.03
2022-10-18T06:21:28.589Z,102036.38
2022-10-18T06:23:59.030Z,102031.94
2022-10-18T06:26:28.602Z,102045.06
2022-10-18T06:28:57.349Z,102042.44
2022-10-18T06:31:27.488Z,102039.78
2022-10-18T06:33:57.982Z,102031.03
2022-10-18T06:36:26.892Z,102026.63
2022-10-18T06:38:56.584Z,102032.72
2022-10-18T06:41:25.424Z,102021.34
2022-10-18T06:43:57.624Z,102017.91
2022-10-18T06:46:27.912Z,102037.97
2022-10-18T06:48:57.758Z,102045.78
2022-10-18T06:51:26.273Z,102042.28
2022-10-18T06:54:06.187Z,102049.28
2022-10-18T06:56:43.491Z,102050.22
2022-10-18T06:59:12.134Z,102047.63
2022-10-18T07:01:42.093Z,102045.84
2022-10-18T07:04:10.771Z,102049.38
2022-10-18T07:06:39.283Z,102054.53
2022-10-18T07:09:07.794Z,102050.09
2022-10-18T07:11:36.428Z,102054.47
2022-10-18T07:14:05.361Z,102062.22
2022-10-18T07:16:34.661Z,102067.44
2022-10-18T07:19:04.799Z,102077.03
2022-10-18T07:21:33.305Z,102084.97
2022-10-18T07:24:01.868Z,102085.03
2022-10-18T07:26:32.439Z,102091.25
2022-10-18T07:29:02.907Z,102091.34
2022-10-18T07:31:31.437Z,102094.97
2022-10-18T07:33:59.998Z,102106.38
2022-10-18T07:36:29.889Z,102110.78
2022-10-18T07:38:58.576Z,102110.88
2022-10-18T07:41:27.826Z,102117.03
2022-10-18T07:43:56.348Z,102118.00
2022-10-18T07:46:24.834Z,102119.75
2022-10-18T07:48:53.781Z,102120.72
2022-10-18T07:51:22.404Z,102117.25
2022-10-18T07:53:52.451Z,102116.25
2022-10-18T07:56:22.500Z,102110.97
2022-10-18T07:58:53.175Z,102103.94
2022-10-18T08:01:22.931Z,102114.41
2022-10-18T08:03:52.349Z,102110.03
2022-10-18T08:06:22.732Z,102100.28
2022-10-18T08:08:53.610Z,102111.78
2022-10-18T08:11:24.330Z,102105.72
2022-10-18T08:13:53.932Z,102106.44
2022-10-18T08:16:24.374Z,102100.38
2022-10-18T08:18:53.331Z,102100.28
2022-10-18T08:21:22.633Z,102094.19
2022-10-18T08:23:53.795Z,102091.50
2022-10-18T08:26:24.677Z,102095.03
2022-10-18T08:29:09.868Z,102091.50
2022-10-18T08:31:41.764Z,102090.63
2022-10-18T08:34:10.276Z,102091.50
2022-10-18T08:36:38.768Z,102100.22
2022-10-18T08:39:08.730Z,102094.97
2022-10-18T08:42:12.519Z,102101.94
2022-10-18T08:44:46.593Z,102104.50
2022-10-18T08:47:16.979Z,102101.81
2022-10-18T08:49:48.664Z,102099.09
2022-10-18T08:52:23.826Z,102091.06
2022-10-18T08:55:00.593Z,102100.59
2022-10-18T08:57:30.364Z,102090.91
2022-10-18T08:59:59.253Z,102096.06
2022-10-18T09:02:40.142Z,102095.19
2022-10-18T09:05:20.985Z,102096.16
2022-10-18T09:08:15.672Z,102098.66
2022-10-18T09:14:04.793Z,102101.97
2022-10-18T09:16:44.271Z,102108.16
2022-10-18T09:19:28.054Z,102101.13
2022-10-18T09:22:05.036Z,102102.72
2022-10-18T09:24:42.125Z,102108.00
2022-10-18T09:27:16.713Z,102105.34
2022-10-18T09:30:00.835Z,102105.31
2022-10-18T09:32:40.609Z,102110.47
2022-10-18T09:35:18.104Z,102106.94
2022-10-18T09:37:47.512Z,102099.91
2022-10-18T09:40:19.680Z,102098.16
2022-10-18T09:42:56.733Z,102092.91
2022-10-18T09:45:29.052Z,102102.47
2022-10-18T09:48:05.684Z,102095.53
2022-10-18T09:50:39.232Z,102097.22
2022-10-18T09:53:17.861Z,102103.50
2022-10-18T09:55:56.547Z,102100.72
2022-10-18T09:58:40.167Z,102091.94
2022-10-18T10:01:11.173Z,102101.56
2022-10-18T10:03:40.845Z,102106.13
2022-10-18T10:06:25.525Z,102107.84
2022-10-18T10:09:01.866Z,102107.78
2022-10-18T10:11:36.587Z,102101.66
2022-10-18T10:16:52.574Z,102093.53
2022-10-18T10:19:25.580Z,102101.50
2022-10-18T10:21:58.880Z,102108.50
2022-10-18T10:24:36.412Z,102100.66
2022-10-18T10:27:08.097Z,102096.28
2022-10-18T10:30:04.154Z,102092.69
2022-10-18T10:32:47.991Z,102093.53
2022-10-18T10:35:52.993Z,102084.72
2022-10-18T10:38:26.349Z,102089.06
2022-10-18T10:40:55.559Z,102089.06
2022-10-18T10:43:42.542Z,102088.19
2022-10-18T10:46:14.078Z,102079.50
2022-10-18T10:48:49.777Z,102074.25
2022-10-18T10:51:29.435Z,102069.00
2022-10-18T10:54:03.518Z,102069.91
2022-10-18T10:56:34.163Z,102066.38
2022-10-18T10:59:11.089Z,102059.47
2022-10-18T11:01:41.702Z,102048.16
2022-10-18T11:04:31.977Z,102047.44
2022-10-18T11:07:25.105Z,102060.59
2022-10-18T11:10:01.105Z,102057.13
2022-10-18T11:12:34.703Z,102058.09
2022-10-18T11:15:20.364Z,102055.28
2022-10-18T11:18:03.683Z,102059.63
2022-10-18T11:20:39.744Z,102055.28
2022-10-18T11:23:11.480Z,102056.09
2022-10-18T11:26:00.478Z,102050.84
2022-10-18T11:28:40.533Z,102053.47
2022-10-18T11:31:16.361Z,102059.59
2022-10-18T11:34:09.120Z,102049.16
2022-10-18T11:36:54.700Z,102043.13
2022-10-18T11:39:44.137Z,102051.72
2022-10-18T11:42:20.650Z,102060.41
2022-10-18T11:44:59.095Z,102051.72
2022-10-18T11:47:38.480Z,102050.13
2022-10-18T11:50:16.193Z,102049.16
2022-10-18T11:52:53.929Z,102043.00
2022-10-18T11:55:43.805Z,102038.72
2022-10-18T11:58:27.035Z,102033.44
2022-10-18T12:01:01.725Z,102023.00
2022-10-18T12:03:38.544Z,102001.72
2022-10-18T12:06:16.072Z,102021.25
2022-10-18T12:08:48.696Z,102040.44
2022-10-18T12:11:20.383Z,102037.88
2022-10-18T12:13:52.676Z,102036.31
2022-10-18T12:16:45.441Z,102034.56
2022-10-18T12:19:23.437Z,102034.63
2022-10-18T12:21:58.879Z,102032.03
2022-10-18T12:24:31.407Z,102030.31
2022-10-18T12:27:02.407Z,102034.78
2022-10-18T12:29:36.852Z,102025.09
2022-10-18T12:32:12.396Z,102025.19
2022-10-18T12:34:50.111Z,102023.44
2022-10-18T12:37:46.170Z,102018.22
2022-10-18T12:40:21.429Z,102014.97
2022-10-18T12:42:52.357Z,102011.41
2022-10-18T12:45:28.950Z,102015.72
2022-10-18T12:48:00.923Z,102012.19
2022-10-18T12:50:36.064Z,102012.25
2022-10-18T12:53:16.822Z,102010.47
2022-10-18T12:55:47.405Z,102002.66
2022-10-18T12:58:28.003Z,102012.47
2022-10-18T13:01:01.320Z,102010.75
2022-10-18T13:04:00.129Z,102016.91
2022-10-18T13:07:08.050Z,102012.63
2022-10-18T13:09:39.070Z,102005.56
2022-10-18T13:12:40.439Z,102009.19
2022-10-18T13:15:34.200Z,102010.97
2022-10-18T13:18:10.760Z,102012.75
2022-10-18T13:20:45.100Z,102013.72
2022-10-18T13:23:33.963Z,102016.56
2022-10-18T13:26:21.204Z,102018.31
2022-10-18T13:28:59.121Z,102007.03
2022-10-18T13:31:32.018Z,102013.31
2022-10-18T13:34:25.185Z,102018.63
2022-10-18T13:37:04.187Z,102012.41
2022-10-18T13:39:34.315Z,102007.97
2022-10-18T13:42:34.526Z,102007.22
2022-10-18T13:45:40.447Z,101995.88
2022-10-18T13:48:46.903Z,101996.91
2022-10-18T13:51:55.171Z,101997.09
2022-10-18T13:54:46.207Z,102013.19
2022-10-18T13:57:26.152Z,102011.56
2022-10-18T14:00:13.368Z,102012.44
2022-10-18T14:02:59.705Z,102014.06
2022-10-18T14:05:48.987Z,102011.47
2022-10-18T14:08:21.551Z,102016.69
2022-10-18T14:11:02.444Z,102022.72
2022-10-18T14:13:39.729Z,102031.50
2022-10-18T14:16:31.601Z,102024.41
2022-10-18T14:19:09.728Z,102030.41
2022-10-18T14:21:43.368Z,102034.19
2022-10-18T14:24:20.252Z,102039.56
2022-10-18T14:26:49.045Z,102045.00
2022-10-18T14:29:20.376Z,102040.63
2022-10-18T14:31:56.434Z,102047.31
2022-10-18T14:34:24.980Z,102040.50
2022-10-18T14:36:53.967Z,102045.28
2022-10-18T14:39:29.163Z,102043.59
2022-10-18T14:41:59.270Z,102050.53
2022-10-18T14:44:29.476Z,102053.16
2022-10-18T14:47:15.153Z,102055.63
2022-10-18T14:49:45.135Z,102046.09
2022-10-18T14:52:17.271Z,102046.78
2022-10-18T14:54:46.576Z,102043.13
2022-10-18T14:57:23.810Z,102047.78
2022-10-18T14:59:58.152Z,102048.63
2022-10-18T15:02:29.747Z,102051.22
2022-10-18T15:05:02.991Z,102047.84
2022-10-18T15:07:32.808Z,102044.84
2022-10-18T15:10:04.104Z,102044.91
2022-10-18T15:12:45.621Z,102047.59
2022-10-18T15:15:26.696Z,102039.75
2022-10-18T15:17:57.300Z,102049.53
2022-10-18T15:20:28.635Z,102032.94
2022-10-18T15:23:22.135Z,102046.69
2022-10-18T15:25:51.528Z,102043.84
2022-10-18T15:28:30.581Z,102046.56
2022-10-18T15:31:01.766Z,102050.88
2022-10-18T15:33:34.855Z,102042.13
2022-10-18T15:36:11.685Z,102049.69
2022-10-18T15:38:40.309Z,102048.78
2022-10-18T15:41:39.736Z,102045.34
2022-10-18T15:44:13.327Z,102046.88
2022-10-18T15:46:42.789Z,102049.63
2022-10-18T15:49:56.468Z,102054.47
2022-10-18T15:52:37.791Z,102050.72
2022-10-18T15:55:49.778Z,102053.13
2022-10-18T15:58:22.277Z,102055.53
2022-10-18T16:00:52.449Z,102051.19
2022-10-18T16:03:24.002Z,102059.84
2022-10-18T16:05:57.073Z,102052.69
2022-10-18T16:08:30.593Z,102049.09
2022-10-18T16:10:59.872Z,102051.56
2022-10-18T16:13:28.753Z,102052.38
2022-10-18T16:15:57.533Z,102053.28
2022-10-18T16:18:27.383Z,102058.63
2022-10-18T16:20:59.191Z,102057.56
2022-10-18T16:23:29.688Z,102054.88
2022-10-18T16:25:58.479Z,102059.88
2022-10-18T16:28:28.212Z,102068.47
2022-10-18T16:30:58.561Z,102066.59
2022-10-18T16:33:27.675Z,102070.97
2022-10-18T16:35:56.556Z,102074.22
2022-10-18T16:38:34.859Z,102075.00
2022-10-18T16:41:04.809Z,102073.25
2022-10-18T16:43:34.588Z,102078.59
2022-10-18T16:46:05.136Z,102078.66
2022-10-18T16:48:34.094Z,102082.97
2022-10-18T16:51:03.183Z,102082.88
2022-10-18T16:53:33.643Z,102084.56
2022-10-18T16:56:05.018Z,102086.56
2022-10-18T16:58:34.682Z,102087.38
2022-10-18T17:01:05.414Z,102089.16
2022-10-18T17:03:36.797Z,102092.63
2022-10-18T17:06:05.497Z,102089.88
2022-10-18T17:08:35.476Z,102088.84
2022-10-18T17:11:04.108Z,102094.00
2022-10-18T17:13:32.762Z,102092.19
2022-10-18T17:16:03.441Z,102092.06
2022-10-18T17:18:32.544Z,102092.00
2022-10-18T17:21:03.361Z,102094.44
2022-10-18T17:23:32.358Z,102088.22
2022-10-18T17:26:06.781Z,102079.50
2022-10-18T17:28:38.480Z,102091.56
2022-10-18T17:31:08.422Z,102089.75
2022-10-18T17:33:37.135Z,102095.75
2022-10-18T17:36:06.063Z,102093.88
2022-10-18T17:38:34.921Z,102092.97
2022-10-18T17:41:09.061Z,102096.38
2022-10-18T17:43:38.018Z,102100.63
2022-10-18T17:46:07.056Z,102100.53
2022-10-18T17:48:35.751Z,102099.50
2022-10-18T17:51:08.449Z,102099.44
2022-10-18T17:53:37.037Z,102103.69
2022-10-18T17:56:08.253Z,102102.69
2022-10-18T17:58:36.960Z,102105.19
2022-10-18T18:01:12.912Z,102112.13
2022-10-18T18:03:42.292Z,102104.06
2022-10-18T18:06:19.423Z,102104.84
2022-10-18T18:08:48.857Z,102101.00
2022-10-18T18:11:19.588Z,102106.91
2022-10-18T18:13:48.162Z,102118.22
2022-10-18T18:16:19.033Z,102118.22
2022-10-18T18:18:49.968Z,102117.22
2022-10-18T18:21:19.599Z,102123.28
2022-10-18T18:23:48.689Z,102124.06
2022-10-18T18:26:19.440Z,102127.53
2022-10-18T18:28:48.595Z,102128.31
2022-10-18T18:31:19.727Z,102125.63
2022-10-18T18:33:48.380Z,102120.28
2022-10-18T18:36:16.982Z,102125.28
2022-10-18T18:38:45.541Z,102122.59
2022-10-18T18:41:16.204Z,102129.72
2022-10-18T18:43:47.578Z,102122.59
2022-10-18T18:46:16.257Z,102128.75
2022-10-18T18:48:45.207Z,102133.13
2022-10-18T18:51:15.711Z,102133.31
2022-10-18T18:53:46.822Z,102129.16
2022-10-18T18:56:17.714Z,102129.94
2022-10-18T18:58:48.328Z,102127.31
2022-10-18T19:01:19.688Z,102125.50
2022-10-18T19:03:50.309Z,102130.84
2022-10-18T19:06:20.797Z,102123.78
2022-10-18T19:08:52.749Z,102131.06
2022-10-18T19:11:23.457Z,102129.38
2022-10-18T19:13:53.680Z,102125.72
2022-10-18T19:16:25.563Z,102129.09
2022-10-18T19:18:56.757Z,102125.19
2022-10-18T19:21:27.360Z,102130.22
2022-10-18T19:23:57.166Z,102138.75
2022-10-18T19:26:33.159Z,102137.78
2022-10-18T19:29:08.825Z,102146.41
2022-10-18T19:31:38.770Z,102144.56
2022-10-18T19:34:09.787Z,102140.84
2022-10-18T19:36:39.346Z,102143.41
2022-10-18T19:39:10.089Z,102154.72
2022-10-18T19:41:41.182Z,102152.84
2022-10-18T19:44:11.064Z,102148.41
2022-10-18T19:46:39.651Z,102152.72
2022-10-18T19:49:08.280Z,102148.25
2022-10-18T19:51:37.067Z,102158.84
2022-10-18T19:54:06.080Z,102153.38
2022-10-18T19:56:34.963Z,102163.53
2022-10-18T19:59:03.495Z,102170.34
2022-10-18T20:01:33.495Z,102170.53
2022-10-18T20:04:03.871Z,102165.00
2022-10-18T20:06:33.016Z,102159.03
2022-10-18T20:09:01.826Z,102163.16
2022-10-18T20:11:31.038Z,102170.00
2022-10-18T20:14:00.304Z,102171.72
2022-10-18T20:16:30.685Z,102179.38
2022-10-18T20:19:02.700Z,102184.38
2022-10-18T20:21:35.685Z,102181.59
2022-10-18T20:24:05.719Z,102193.97
2022-10-18T20:26:35.952Z,102195.50
2022-10-18T20:29:05.364Z,102195.34
2022-10-18T20:31:38.489Z,102192.56
2022-10-18T20:34:11.670Z,102187.97
2022-10-18T20:36:40.667Z,102180.09
2022-10-18T20:39:10.658Z,102193.09
2022-10-18T20:41:41.292Z,102184.03
2022-10-18T20:44:15.306Z,102188.16
2022-10-18T20:46:45.157Z,102188.84
2022-10-18T20:49:17.274Z,102185.56
2022-10-18T20:51:46.284Z,102181.94
2022-10-18T20:54:14.924Z,102190.53
2022-10-18T20:56:43.657Z,102176.19
2022-10-18T20:59:12.319Z,102182.94
2022-10-18T21:01:41.055Z,102181.31
2022-10-18T21:04:11.347Z,102192.28
2022-10-18T21:06:43.249Z,102184.28
2022-10-18T21:09:14.542Z,102184.34
2022-10-18T21:11:45.142Z,102174.75
2022-10-18T21:14:16.124Z,102171.91
2022-10-18T21:16:45.639Z,102173.50
2022-10-18T21:19:18.411Z,102179.41
2022-10-18T21:21:50.745Z,102179.53
2022-10-18T21:24:20.655Z,102193.13
2022-10-18T21:26:49.538Z,102185.19
2022-10-18T21:29:22.148Z,102185.88
2022-10-18T21:31:55.278Z,102179.13
2022-10-18T21:34:23.913Z,102180.66
2022-10-18T21:36:53.821Z,102173.47
2022-10-18T21:41:58.088Z,102177.59
2022-10-18T21:44:26.708Z,102173.25
2022-10-18T21:46:55.652Z,102175.03
2022-10-18T21:49:25.159Z,102174.50
2022-10-18T21:51:55.176Z,102171.03
2022-10-18T21:54:23.694Z,102176.28
2022-10-18T21:56:52.221Z,102173.41
2022-10-18T21:59:20.855Z,102173.22
2022-10-18T22:01:49.614Z,102181.13
2022-10-18T22:04:20.665Z,102180.00
2022-10-18T22:06:49.483Z,102184.41
2022-10-18T22:09:21.127Z,102181.78
2022-10-18T22:11:52.665Z,102173.69
2022-10-18T22:14:21.580Z,102181.63
2022-10-18T22:16:50.335Z,102174.72
2022-10-18T22:19:19.149Z,102174.50
2022-10-18T22:21:47.667Z,102174.22
2022-10-18T22:24:16.219Z,102170.00
2022-10-18T22:26:47.134Z,102173.63
2022-10-18T22:29:17.265Z,102172.03
2022-10-18T22:31:47.576Z,102163.38
2022-10-18T22:34:19.091Z,102148.91
2022-10-18T22:36:47.938Z,102154.88
2022-10-18T22:39:17.176Z,102156.41
2022-10-18T22:41:47.612Z,102159.94
2022-10-18T22:44:16.577Z,102155.66
2022-10-18T22:46:45.191Z,102148.16
2022-10-18T22:49:13.957Z,102141.28
2022-10-18T22:51:42.536Z,102137.06
2022-10-18T22:54:11.211Z,102143.34
2022-10-18T22:56:39.779Z,102141.53
2022-10-18T22:59:09.855Z,102136.63
2022-10-18T23:01:39.544Z,102140.09
2022-10-18T23:04:08.077Z,102139.34
2022-10-18T23:06:37.682Z,102145.66
2022-10-18T23:09:09.309Z,102135.72
2022-10-18T23:11:38.930Z,102139.44
2022-10-18T23:14:09.604Z,102141.03
2022-10-18T23:16:38.268Z,102141.34
2022-10-18T23:19:06.816Z,102143.00
2022-10-18T23:21:35.557Z,102140.31
2022-10-18T23:24:04.547Z,102139.56
2022-10-18T23:26:33.197Z,102139.16
2022-10-18T23:29:01.829Z,102142.31
2022-10-18T23:31:33.848Z,102141.34
2022-10-18T23:34:04.941Z,102141.41
2022-10-18T23:36:34.539Z,102143.25
2022-10-18T23:39:04.030Z,102132.56
2022-10-18T23:41:32.547Z,102139.56
2022-10-18T23:44:02.383Z,102143.69
2022-10-18T23:46:32.590Z,102146.31
2022-10-18T23:49:01.072Z,102138.56
2022-10-18T23:51:29.611Z,102136.78
2022-10-18T23:53:58.120Z,102140.94
2022-10-18T23:56:26.608Z,102133.84
2022-10-18T23:58:55.186Z,102134.53
